Time;durP1;ratioP1;P1;durP2;ratioP2;P2;SDS_P1;SDS_P2;PMS_P1;PMS_P2;Temp;Humidity;BMP_temperature;BMP_pressure;BME280_temperature;BME280_humidity;BME280_pressure;Samples;Min_cycle;Max_cycle;Signal;HPM_P1;HPM_P2
2022/01/18 00:01:32;;;;;;;62.15;33.92;;;;;;;12.69;50.19;101772.41;5076206;28;20044;-76
2022/01/18 00:04:17;;;;;;;40.90;22.67;;;;;;;12.73;52.40;101780.81;5073188;28;20045;-77
2022/01/18 00:07:02;;;;;;;45.50;25.85;;;;;;;12.58;52.13;101779.19;5072681;28;20048;-76
2022/01/18 00:09:48;;;;;;;41.80;23.48;;;;;;;12.60;53.79;101787.84;5064881;28;20048;-76
2022/01/18 00:18:13;;;;;;;39.22;20.63;;;;;;;12.53;52.46;101814.75;5075685;28;20041;-75
2022/01/18 00:23:42;;;;;;;29.25;14.25;;;;;;;12.60;55.23;101820.59;5062027;28;20048;-75
2022/01/18 00:26:30;;;;;;;33.33;17.65;;;;;;;12.59;55.33;101819.00;5068579;28;20028;-76
2022/01/18 00:29:17;;;;;;;59.72;30.08;;;;;;;12.26;53.11;101822.88;5070145;28;20040;-76
2022/01/18 00:32:12;;;;;;;56.50;31.10;;;;;;;12.20;51.79;101829.50;5071381;28;20036;-75
2022/01/18 00:34:57;;;;;;;44.92;26.27;;;;;;;12.29;51.91;101831.25;5074663;28;20420;-75
2022/01/18 00:37:51;;;;;;;55.67;31.73;;;;;;;12.42;52.57;101846.03;5072831;28;20045;-76
2022/01/18 00:40:35;;;;;;;58.35;31.83;;;;;;;12.30;53.81;101853.88;5070821;28;20040;-75
2022/01/18 00:43:20;;;;;;;54.03;31.02;;;;;;;12.15;52.42;101865.84;5074375;28;20036;-75
2022/01/18 00:46:05;;;;;;;30.92;16.15;;;;;;;12.19;54.63;101866.88;5073195;28;20048;-75
2022/01/18 00:48:54;;;;;;;46.03;25.05;;;;;;;12.11;53.67;101878.47;5071133;28;20044;-75
2022/01/18 00:51:40;;;;;;;61.33;31.30;;;;;;;12.29;54.34;101885.00;5067221;28;20048;-76
2022/01/18 00:54:33;;;;;;;59.08;33.78;;;;;;;12.38;53.36;101888.69;5072399;28;20032;-75
2022/01/18 00:57:18;;;;;;;51.00;29.50;;;;;;;12.44;52.66;101876.56;5050690;28;20421;-75
2022/01/18 01:00:04;;;;;;;31.08;14.85;;;;;;;12.30;55.45;101878.44;5063685;28;20041;-75
2022/01/18 01:02:49;;;;;;;45.47;27.70;;;;;;;12.28;55.16;101878.75;5069975;28;20060;-76
2022/01/18 01:05:34;;;;;;;52.97;29.00;;;;;;;12.34;53.21;101880.25;5064911;28;20044;-78
2022/01/18 01:08:19;;;;;;;59.92;33.88;;;;;;;12.38;51.17;101881.31;5090606;28;20039;-79
2022/01/18 01:11:06;;;;;;;55.65;32.22;;;;;;;12.46;52.17;101884.44;5077391;28;20060;-78
2022/01/18 01:13:55;;;;;;;44.40;25.55;;;;;;;12.21;53.10;101891.94;5081708;28;20504;-79
2022/01/18 01:31:59;;;;;;;60.75;32.53;;;;;;;12.31;49.63;101915.50;5074518;28;20045;-78
2022/01/18 01:35:13;;;;;;;58.65;33.22;;;;;;;12.41;52.12;101932.53;5077915;28;20036;-77
2022/01/18 01:44:18;;;;;;;60.72;31.83;;;;;;;12.32;52.77;101939.78;5078462;28;20040;-78
2022/01/18 01:47:04;;;;;;;37.65;19.20;;;;;;;12.31;53.23;101937.34;5075008;28;20409;-78
2022/01/18 01:49:51;;;;;;;59.10;31.30;;;;;;;12.27;52.17;101936.31;5073728;28;20040;-79
2022/01/18 01:52:35;;;;;;;44.85;24.42;;;;;;;12.25;53.71;101927.59;5075822;28;20413;-78
2022/01/18 01:55:21;;;;;;;56.45;32.13;;;;;;;12.23;53.09;101929.84;5077498;28;20048;-79
2022/01/18 01:58:07;;;;;;;49.13;28.80;;;;;;;12.19;53.76;101924.13;5087897;28;20044;-78
2022/01/18 02:01:04;;;;;;;39.20;20.92;;;;;;;12.25;54.93;101930.31;5081510;28;20485;-79
2022/01/18 02:03:50;;;;;;;61.55;33.45;;;;;;;12.18;52.30;101922.53;5066914;28;20048;-79
2022/01/18 02:06:35;;;;;;;60.90;33.75;;;;;;;12.15;52.32;101930.47;5064541;28;20052;-77
2022/01/18 02:09:20;;;;;;;;;;;;;;;12.16;54.82;101924.75;5082306;28;20031;-77
2022/01/18 02:12:04;;;;;;;;;;;;;;;12.14;54.21;101929.66;5075096;28;19912;-76
2022/01/18 02:14:56;;;;;;;51.85;30.00;;;;;;;12.15;51.40;101922.31;5076515;28;20412;-78
2022/01/18 02:23:55;;;;;;;54.05;30.67;;;;;;;11.97;50.28;101927.50;5074151;28;20048;-78
2022/01/18 02:26:41;;;;;;;44.15;25.40;;;;;;;11.89;50.46;101919.94;5078883;28;20040;-79
2022/01/18 02:29:25;;;;;;;43.92;24.77;;;;;;;11.85;50.74;101920.84;5079033;28;20044;-78
2022/01/18 02:32:12;;;;;;;;;;;;;;;11.85;49.77;101927.09;5080792;28;20397;-78
2022/01/18 02:34:56;;;;;;;31.13;15.45;;;;;;;11.85;54.34;101940.72;5072824;28;19912;-78
2022/01/18 02:37:41;;;;;;;27.80;16.02;;;;;;;11.91;56.72;101945.00;5075502;28;20044;-78
2022/01/18 02:40:26;;;;;;;48.95;29.13;;;;;;;11.93;55.99;101951.00;5067738;28;20028;-77
2022/01/18 02:46:16;;;;;;;26.38;16.90;;;;;;;11.97;58.56;101954.75;5076998;28;20412;-77
2022/01/18 02:49:01;;;;;;;;;;;;;;;12.02;59.63;101962.03;5075163;28;20033;-79
2022/01/18 02:51:46;;;;;;;35.13;19.38;;;;;;;12.01;59.83;101963.13;5072585;28;19916;-79
2022/01/18 02:54:31;;;;;;;39.45;22.38;;;;;;;12.02;59.81;101963.94;5075592;28;20048;-79
2022/01/18 02:57:25;;;;;;;17.63;9.73;;;;;;;12.07;61.68;101964.69;5074786;28;20048;-78
2022/01/18 03:00:27;;;;;;;24.70;12.70;;;;;;;12.20;62.82;101969.41;5072345;28;20033;-77
2022/01/18 03:05:57;;;;;;;23.85;14.23;;;;;;;12.10;61.79;101979.63;5054059;28;20045;-78
2022/01/18 03:08:42;;;;;;;23.42;12.35;;;;;;;12.09;62.24;101969.88;5055231;28;20049;-77
2022/01/18 03:11:27;;;;;;;53.55;29.25;;;;;;;12.04;59.06;101975.38;5056026;28;20041;-78
2022/01/18 03:14:11;;;;;;;33.90;19.00;;;;;;;11.95;57.38;101970.56;5060794;28;20044;-77
2022/01/18 03:16:56;;;;;;;;;;;;;;;12.03;60.45;101981.94;5071549;28;20040;-77
2022/01/18 03:19:40;;;;;;;29.95;17.63;;;;;;;11.99;60.50;101978.97;5064950;28;19912;-78
2022/01/18 03:22:26;;;;;;;39.78;20.95;;;;;;;11.94;58.58;101976.31;5074227;28;20624;-77
2022/01/18 03:25:27;;;;;;;40.83;24.88;;;;;;;11.89;57.32;101976.38;5068510;28;20481;-77
2022/01/18 03:28:14;;;;;;;44.92;26.90;;;;;;;11.88;57.98;101975.59;5075016;28;20497;-79
2022/01/18 03:30:59;;;;;;;51.53;29.70;;;;;;;11.82;55.16;101986.84;5073029;28;20056;-79
2022/01/18 03:33:43;;;;;;;41.53;24.45;;;;;;;11.78;56.60;101988.53;5076579;28;20048;-77
2022/01/18 03:36:28;;;;;;;50.47;30.85;;;;;;;11.74;55.42;101993.75;5073927;28;20048;-79
2022/01/18 03:39:13;;;;;;;54.65;31.40;;;;;;;11.71;55.83;101991.56;5073235;28;20040;-79
2022/01/18 03:42:19;;;;;;;42.08;23.08;;;;;;;11.68;55.44;101997.63;5071554;28;20044;-79
2022/01/18 03:45:05;;;;;;;51.90;26.67;;;;;;;11.63;55.33;102008.56;5073539;28;20029;-78
2022/01/18 03:47:50;;;;;;;48.83;28.67;;;;;;;11.64;57.12;102012.09;5072271;28;20044;-78
2022/01/18 03:50:35;;;;;;;53.65;30.77;;;;;;;11.59;54.39;102010.25;5076274;28;20040;-78
2022/01/18 03:53:21;;;;;;;33.28;20.88;;;;;;;11.57;56.04;102015.19;5073600;28;20048;-80
2022/01/18 03:56:06;;;;;;;41.85;25.35;;;;;;;11.54;55.83;102022.00;5072087;28;20409;-78
2022/01/18 03:58:51;;;;;;;37.45;23.27;;;;;;;11.55;56.11;102023.63;5074018;28;20508;-79
2022/01/18 04:01:36;;;;;;;34.55;19.20;;;;;;;11.51;56.62;102027.22;5074640;28;20041;-78
2022/01/18 04:04:20;;;;;;;44.28;24.92;;;;;;;11.52;53.83;102040.56;5071913;28;20044;-78
2022/01/18 04:07:06;;;;;;;54.70;32.17;;;;;;;11.43;53.56;102036.84;5076368;28;20044;-78
2022/01/18 04:09:50;;;;;;;47.65;26.77;;;;;;;11.41;57.94;102047.22;5051296;28;20049;-78
2022/01/18 04:12:35;;;;;;;37.95;20.67;;;;;;;11.44;58.92;102052.09;5053090;28;20056;-79
2022/01/18 04:15:20;;;;;;;37.75;22.40;;;;;;;11.36;54.44;102049.19;5051331;28;20417;-79
2022/01/18 04:27:20;;;;;;;48.80;28.73;;;;;;;11.28;56.91;102069.66;5071941;28;20036;-79
2022/01/18 04:30:06;;;;;;;38.22;25.35;;;;;;;11.26;55.28;102066.44;5076367;28;20041;-78
2022/01/18 04:32:50;;;;;;;46.17;29.80;;;;;;;11.29;57.55;102075.94;5077142;28;20040;-78
2022/01/18 04:35:36;;;;;;;;;;;;;;;11.27;51.91;102072.69;5078471;28;20045;-78
2022/01/18 04:38:20;;;;;;;44.72;26.35;;;;;;;11.23;53.71;102068.91;5077753;28;19912;-78
2022/01/18 04:41:16;;;;;;;43.05;23.63;;;;;;;11.12;51.60;102069.00;5083209;28;20036;-79
2022/01/18 04:49:48;;;;;;;32.60;18.95;;;;;;;11.07;58.72;102077.19;5074346;28;20049;-78
2022/01/18 04:52:33;;;;;;;44.80;28.27;;;;;;;11.11;60.45;102072.00;5078858;28;20040;-77
2022/01/18 04:55:18;;;;;;;28.70;16.27;;;;;;;11.13;61.46;102075.25;5089413;28;20048;-78
2022/01/18 04:58:03;;;;;;;29.15;16.75;;;;;;;11.14;60.86;102076.88;5086322;28;20037;-78
2022/01/18 05:00:49;;;;;;;;;;;;;;;11.22;61.18;102083.63;5080102;28;20044;-78
2022/01/18 05:03:34;;;;;;;30.17;17.05;;;;;;;11.15;60.68;102092.13;5058204;28;19916;-78
2022/01/18 05:06:19;;;;;;;41.55;21.63;;;;;;;11.11;58.92;102097.34;5057285;28;20044;-78
2022/01/18 05:09:08;;;;;;;48.65;28.88;;;;;;;10.99;53.36;102099.59;5081238;28;20044;-78
2022/01/18 05:12:12;;;;;;;46.72;26.80;;;;;;;10.93;54.81;102098.00;5081702;28;20040;-77
2022/01/18 05:14:56;;;;;;;29.23;15.68;;;;;;;11.03;61.49;102105.28;5089163;28;20040;-78
2022/01/18 05:18:09;;;;;;;14.10;8.57;;;;;;;11.13;63.71;102108.72;5090662;28;20651;-79
2022/01/18 05:23:50;;;;;;;16.75;8.40;;;;;;;11.36;66.37;102109.09;5073723;28;20064;-81
2022/01/18 05:26:35;;;;;;;11.15;6.68;;;;;;;11.45;67.16;102110.09;5078881;28;20055;-79
2022/01/18 05:29:20;;;;;;;14.43;6.60;;;;;;;11.48;67.37;102107.59;5075282;28;20048;-79
2022/01/18 05:32:05;;;;;;;14.43;8.68;;;;;;;11.52;67.80;102110.59;5076804;28;20040;-78
2022/01/18 05:34:50;;;;;;;17.38;9.57;;;;;;;11.55;67.59;102112.72;5083528;28;20047;-78
2022/01/18 05:37:35;;;;;;;11.23;7.80;;;;;;;11.53;67.53;102123.09;5096910;28;20047;-78
2022/01/18 05:40:21;;;;;;;10.45;7.13;;;;;;;11.48;67.61;102120.41;5072470;28;20044;-79
2022/01/18 05:43:06;;;;;;;16.67;9.00;;;;;;;11.54;68.30;102119.25;5083135;28;20035;-78
2022/01/18 05:45:50;;;;;;;15.35;9.15;;;;;;;11.59;68.36;102130.94;5085916;28;20041;-79
2022/01/18 05:48:35;;;;;;;10.40;6.90;;;;;;;11.60;68.50;102134.47;5083446;28;20041;-77
2022/01/18 05:51:20;;;;;;;18.98;10.25;;;;;;;11.60;67.84;102129.03;5082431;28;20409;-78
2022/01/18 05:54:06;;;;;;;18.40;10.67;;;;;;;11.61;68.46;102124.38;5084051;28;20040;-77
2022/01/18 05:56:51;;;;;;;17.95;9.40;;;;;;;11.64;68.58;102126.53;5090001;28;20266;-77
2022/01/18 05:59:38;;;;;;;10.05;6.82;;;;;;;11.62;68.72;102126.84;5082690;28;20051;-77
2022/01/18 06:08:23;;;;;;;16.25;9.80;;;;;;;11.65;68.41;102133.59;5089674;28;20448;-78
2022/01/18 06:11:08;;;;;;;15.57;9.70;;;;;;;11.64;68.43;102132.78;5072781;28;20051;-78
2022/01/18 06:13:53;;;;;;;16.38;10.73;;;;;;;11.56;67.82;102128.78;5073156;28;20044;-76
2022/01/18 06:16:37;;;;;;;18.23;8.25;;;;;;;11.57;68.07;102132.34;5068126;28;20040;-75
2022/01/18 06:19:22;;;;;;;21.25;10.27;;;;;;;11.58;67.84;102139.38;5072122;28;20050;-77
2022/01/18 06:22:07;;;;;;;30.20;15.13;;;;;;;11.53;67.60;102133.97;5069863;28;20036;-77
2022/01/18 06:24:52;;;;;;;54.92;28.83;;;;;;;11.22;53.41;102138.09;5067608;28;20037;-77
2022/01/18 06:27:37;;;;;;;18.35;11.63;;;;;;;11.36;63.28;102155.41;5081142;28;20044;-78
2022/01/18 06:30:22;;;;;;;50.15;25.23;;;;;;;11.28;62.02;102164.16;5081104;28;20040;-77
2022/01/18 06:33:07;;;;;;;21.85;14.68;;;;;;;11.29;62.86;102176.69;5081959;28;20032;-76
2022/01/18 06:35:52;;;;;;;;;;;;;;;11.30;62.90;102184.56;5080474;28;20643;-77
2022/01/18 06:38:36;;;;;;;18.77;11.95;;;;;;;11.22;62.77;102187.91;5072279;28;19912;-79
2022/01/18 06:41:22;;;;;;;20.50;11.30;;;;;;;11.24;64.03;102195.78;5072073;28;20036;-78
2022/01/18 06:44:06;;;;;;;18.33;9.73;;;;;;;11.22;65.27;102185.19;5089305;28;20036;-78
2022/01/18 06:46:52;;;;;;;46.08;25.13;;;;;;;11.19;62.96;102190.38;5069894;28;20044;-79
2022/01/18 06:49:36;;;;;;;49.65;27.00;;;;;;;11.13;62.35;102206.75;5077524;28;20508;-78
2022/01/18 06:52:21;;;;;;;39.08;21.48;;;;;;;10.97;54.48;102207.13;5080293;28;20048;-78
2022/01/18 06:55:07;;;;;;;45.60;29.08;;;;;;;10.75;53.75;102207.50;5085902;28;20059;-78
2022/01/18 06:57:53;;;;;;;51.58;30.13;;;;;;;10.81;55.94;102206.41;5093530;28;20044;-77
2022/01/18 07:00:37;;;;;;;46.25;26.40;;;;;;;10.59;52.33;102211.41;5089743;28;20040;-78
2022/01/18 07:03:22;;;;;;;44.47;28.58;;;;;;;10.46;52.83;102220.16;5075801;28;20048;-78
2022/01/18 07:06:07;;;;;;;48.90;27.92;;;;;;;10.34;53.18;102225.91;5073693;28;20036;-77
2022/01/18 07:08:53;;;;;;;44.60;26.48;;;;;;;10.34;57.04;102230.53;5074356;28;20409;-76
2022/01/18 07:11:37;;;;;;;40.35;23.00;;;;;;;10.17;53.04;102237.06;5075285;28;20555;-77
2022/01/18 07:14:23;;;;;;;38.13;22.42;;;;;;;9.95;51.07;102233.84;5071615;28;20041;-76
2022/01/18 07:17:08;;;;;;;51.03;30.65;;;;;;;9.93;51.18;102244.16;5080823;28;20040;-78
2022/01/18 07:19:53;;;;;;;67.90;32.53;;;;;;;9.84;49.73;102238.47;5077501;28;20443;-78
2022/01/18 07:22:42;;;;;;;27.58;18.45;;;;;;;10.11;57.04;102253.63;5071773;28;20044;-77
2022/01/18 07:25:27;;;;;;;52.20;30.33;;;;;;;10.27;59.16;102258.81;5070610;28;20033;-76
2022/01/18 07:28:15;;;;;;;40.22;23.98;;;;;;;10.04;52.36;102248.50;5074568;28;20044;-77
2022/01/18 07:31:00;;;;;;;58.33;34.45;;;;;;;9.73;49.47;102263.19;5073113;28;20417;-75
2022/01/18 07:33:44;;;;;;;59.90;34.63;;;;;;;9.37;49.78;102252.28;5070893;28;20040;-77
2022/01/18 07:36:29;;;;;;;62.45;35.38;;;;;;;9.29;48.94;102269.13;5075174;28;20045;-76
2022/01/18 07:39:14;;;;;;;64.43;35.50;;;;;;;9.30;49.15;102269.91;5073565;28;20040;-76
2022/01/18 07:41:59;;;;;;;60.13;35.25;;;;;;;9.13;51.15;102275.59;5071480;28;20437;-75
2022/01/18 07:44:45;;;;;;;60.65;34.85;;;;;;;9.39;49.76;102281.88;5075008;28;20040;-77
2022/01/18 07:47:29;;;;;;;51.70;28.98;;;;;;;9.39;48.89;102285.44;5073709;28;20063;-75
2022/01/18 07:50:14;;;;;;;56.90;30.85;;;;;;;9.37;49.89;102295.72;5071649;28;20041;-77
2022/01/18 07:52:59;;;;;;;59.28;29.50;;;;;;;9.33;49.75;102299.25;5072733;28;20413;-76
2022/01/18 07:55:44;;;;;;;55.17;29.40;;;;;;;9.04;51.35;102296.16;5073803;28;20047;-76
2022/01/18 07:58:29;;;;;;;48.95;28.48;;;;;;;9.15;51.49;102314.09;5055923;28;20044;-75
2022/01/18 08:01:14;;;;;;;79.05;40.63;;;;;;;9.07;52.80;102313.81;5075412;28;20083;-77
2022/01/18 08:03:58;;;;;;;78.57;41.00;;;;;;;9.07;53.55;102311.91;5068286;28;20417;-75
2022/01/18 08:06:43;;;;;;;69.43;39.13;;;;;;;9.08;54.02;102320.88;5068708;28;20051;-75
2022/01/18 08:09:28;;;;;;;58.15;33.20;;;;;;;9.04;54.56;102326.00;5065102;28;20045;-76
2022/01/18 08:12:12;;;;;;;30.27;17.08;;;;;;;9.29;59.74;102338.88;5073670;28;20037;-75
2022/01/18 08:15:02;;;;;;;20.50;11.20;;;;;;;9.50;64.90;102337.81;5071381;28;20417;-75
2022/01/18 08:17:50;;;;;;;17.65;10.15;;;;;;;9.70;68.03;102339.78;5076034;28;20032;-75
2022/01/18 08:20:34;;;;;;;53.28;31.20;;;;;;;9.65;65.22;102342.50;5076435;28;20063;-76
2022/01/18 08:23:19;;;;;;;84.78;42.88;;;;;;;8.37;59.48;102348.44;5079081;28;20040;-80
2022/01/18 08:26:04;;;;;;;65.85;33.88;;;;;;;7.74;62.49;102352.72;5083582;28;20414;-79
2022/01/18 08:28:49;;;;;;;55.90;32.13;;;;;;;7.30;64.09;102351.19;5081715;28;20523;-79
2022/01/18 08:31:34;;;;;;;64.68;33.10;;;;;;;7.23;65.08;102355.94;5075288;28;20040;-78
2022/01/18 08:34:21;;;;;;;85.22;44.92;;;;;;;7.20;65.81;102353.75;5082232;28;20047;-79
2022/01/18 08:37:05;;;;;;;119.10;59.00;;;;;;;6.85;66.96;102351.44;5081037;28;20048;-78
2022/01/18 08:39:50;;;;;;;100.72;47.95;;;;;;;6.81;68.55;102361.91;5077874;28;20044;-79
2022/01/18 08:42:36;;;;;;;98.93;47.03;;;;;;;6.79;68.68;102361.34;5083733;28;20036;-79
2022/01/18 08:45:21;;;;;;;108.03;53.55;;;;;;;6.58;70.14;102362.13;5080564;28;20052;-78
2022/01/18 08:48:06;;;;;;;76.88;40.28;;;;;;;6.75;69.32;102360.22;5082385;28;20044;-78
2022/01/18 08:50:51;;;;;;;69.95;38.28;;;;;;;7.18;69.52;102354.00;5078057;28;20044;-80
2022/01/18 08:53:37;;;;;;;72.32;36.00;;;;;;;7.08;69.65;102363.88;5091388;28;20039;-79
2022/01/18 08:56:22;;;;;;;86.68;47.50;;;;;;;7.22;68.93;102367.84;5089712;28;20044;-80
2022/01/18 08:59:07;;;;;;;69.07;35.40;;;;;;;7.60;67.16;102367.75;5078707;28;20536;-80
2022/01/18 09:01:52;;;;;;;64.53;29.92;;;;;;;7.70;65.30;102373.28;5096636;28;20047;-80
2022/01/18 09:04:37;;;;;;;43.60;24.75;;;;;;;7.83;62.80;102382.88;5071285;28;20051;-80
2022/01/18 09:07:23;;;;;;;48.50;28.67;;;;;;;7.73;61.08;102378.16;5075353;28;20051;-80
2022/01/18 09:10:10;;;;;;;;;;;;;;;7.81;59.65;102387.75;5088171;28;20051;-79
2022/01/18 09:12:54;;;;;;;41.78;23.75;;;;;;;7.92;58.32;102385.94;5083336;28;20304;-79
2022/01/18 09:15:40;;;;;;;38.13;20.45;;;;;;;7.98;59.36;102399.25;5088458;28;20071;-79
2022/01/18 09:18:24;;;;;;;30.17;18.48;;;;;;;8.14;56.60;102394.81;5081077;28;20048;-80
2022/01/18 09:21:09;;;;;;;32.63;18.00;;;;;;;8.00;56.70;102399.00;5072868;28;20067;-79
2022/01/18 09:23:54;;;;;;;32.55;18.50;;;;;;;8.15;56.09;102399.97;5096509;28;20297;-80
2022/01/18 09:26:39;;;;;;;33.60;18.40;;;;;;;8.08;56.68;102409.38;5076793;28;20044;-79
2022/01/18 09:29:24;;;;;;;36.90;19.58;;;;;;;8.10;57.56;102418.91;5078728;28;20040;-79
2022/01/18 09:32:09;;;;;;;37.85;19.55;;;;;;;8.21;58.04;102414.38;5077732;28;20414;-79
2022/01/18 09:34:54;;;;;;;29.52;19.15;;;;;;;8.35;56.30;102421.03;5089205;28;20047;-79
2022/01/18 09:37:38;;;;;;;36.22;19.25;;;;;;;8.25;57.01;102425.53;5085376;28;20051;-79
2022/01/18 09:40:23;;;;;;;39.17;18.90;;;;;;;8.29;56.86;102430.16;5080368;28;20050;-80
2022/01/18 09:43:09;;;;;;;34.50;19.42;;;;;;;8.33;56.31;102431.31;5091616;28;20047;-79
2022/01/18 09:45:56;;;;;;;44.95;23.75;;;;;;;8.49;56.01;102430.38;5081069;28;20048;-79
2022/01/18 09:48:41;;;;;;;47.58;24.02;;;;;;;8.58;55.67;102436.94;5078247;28;20044;-79
2022/01/18 09:51:28;;;;;;;31.38;16.92;;;;;;;8.59;55.89;102432.34;5081628;28;20041;-79
2022/01/18 09:54:13;;;;;;;41.20;21.27;;;;;;;8.78;54.85;102430.88;5079257;28;20044;-79
2022/01/18 09:56:58;;;;;;;;;;;;;;;8.91;54.66;102440.44;5077797;28;20040;-80
2022/01/18 09:59:43;;;;;;;40.13;23.02;;;;;;;9.04;54.89;102444.59;5072298;28;19912;-79
2022/01/18 10:02:27;;;;;;;33.90;19.38;;;;;;;9.09;54.77;102441.91;5081147;28;20032;-80
2022/01/18 10:05:18;;;;;;;42.67;26.33;;;;;;;9.22;55.29;102447.69;5076530;28;20036;-79
2022/01/18 10:08:15;;;;;;;48.70;26.58;;;;;;;9.23;56.45;102449.31;5087120;28;20067;-79
2022/01/18 10:11:10;;;;;;;48.08;27.67;;;;;;;9.38;56.97;102443.97;5091298;28;20111;-79
2022/01/18 10:13:56;;;;;;;51.50;31.08;;;;;;;9.45;57.19;102444.53;5062943;28;20497;-79
2022/01/18 10:16:43;;;;;;;56.65;32.95;;;;;;;9.50;57.53;102442.94;5073974;28;20049;-80
2022/01/18 10:19:33;;;;;;;73.50;39.05;;;;;;;9.61;59.06;102442.69;5077874;28;20052;-80
2022/01/18 10:22:28;;;;;;;65.93;36.13;;;;;;;9.73;58.86;102447.91;5071963;28;20032;-80
2022/01/18 10:25:19;;;;;;;69.28;36.45;;;;;;;9.78;57.66;102437.03;5086326;28;20537;-79
2022/01/18 10:28:04;;;;;;;58.13;34.58;;;;;;;9.78;56.35;102428.91;5075212;28;20047;-80
2022/01/18 10:30:50;;;;;;;44.85;26.17;;;;;;;9.68;55.77;102434.31;5072031;28;20044;-80
2022/01/18 10:33:46;;;;;;;60.80;33.55;;;;;;;9.72;56.05;102438.94;5074088;28;20048;-80
2022/01/18 10:36:31;;;;;;;;;;;;;;;9.75;55.35;102440.31;5082450;28;20051;-80
2022/01/18 10:39:21;;;;;;;64.60;32.47;;;;;;;9.94;54.87;102443.34;5079171;28;20365;-80
2022/01/18 10:42:25;;;;;;;54.65;31.17;;;;;;;10.04;54.14;102432.50;5073068;28;20028;-77
2022/01/18 10:45:14;;;;;;;61.60;29.00;;;;;;;10.02;53.63;102440.09;5079040;28;20040;-77
2022/01/18 10:48:04;;;;;;;53.58;27.08;;;;;;;10.18;52.01;102434.44;5076658;28;20040;-77
2022/01/18 10:50:48;;;;;;;46.67;27.08;;;;;;;10.26;51.36;102438.50;5074873;28;20429;-76
2022/01/18 10:53:33;;;;;;;40.40;22.02;;;;;;;10.31;50.06;102433.06;5071815;28;20041;-77
2022/01/18 10:56:18;;;;;;;42.50;20.48;;;;;;;10.25;50.32;102421.41;5077346;28;20040;-79
2022/01/18 10:59:04;;;;;;;40.17;22.17;;;;;;;10.36;50.52;102427.66;5075677;28;20045;-80
2022/01/18 11:02:10;;;;;;;41.70;22.23;;;;;;;10.33;50.90;102430.09;5073178;28;20033;-77
2022/01/18 11:04:56;;;;;;;45.92;25.63;;;;;;;10.42;50.08;102425.75;5075354;28;20044;-77
2022/01/18 11:07:42;;;;;;;47.40;23.88;;;;;;;10.68;49.29;102424.63;5073851;28;20598;-77
2022/01/18 11:10:33;;;;;;;50.05;24.30;;;;;;;10.54;49.32;102431.72;5072149;28;20048;-78
2022/01/18 11:13:22;;;;;;;43.63;24.10;;;;;;;10.59;49.36;102426.28;5074910;28;20037;-77
2022/01/18 11:16:14;;;;;;;42.45;23.42;;;;;;;11.03;47.64;102429.19;5073537;28;20040;-77
2022/01/18 11:18:59;;;;;;;39.65;22.67;;;;;;;10.99;47.48;102428.94;5067054;28;20500;-76
2022/01/18 11:21:50;;;;;;;31.20;15.65;;;;;;;10.89;46.10;102425.44;5073613;28;20044;-77
2022/01/18 11:24:38;;;;;;;42.10;21.38;;;;;;;10.79;47.85;102428.16;5064820;28;20517;-76
2022/01/18 11:27:22;;;;;;;41.65;22.73;;;;;;;11.26;47.07;102436.78;5073085;28;20044;-76
2022/01/18 11:30:08;;;;;;;33.67;17.13;;;;;;;11.54;47.05;102441.56;5075864;28;20039;-76
2022/01/18 11:32:56;;;;;;;44.40;23.25;;;;;;;11.42;46.83;102435.63;5071773;28;20048;-76
2022/01/18 11:36:00;;;;;;;41.47;22.92;;;;;;;11.56;46.46;102433.13;5054012;28;20041;-77
2022/01/18 11:38:52;;;;;;;50.85;24.75;;;;;;;11.63;47.25;102435.53;5052094;28;20049;-76
2022/01/18 11:41:37;;;;;;;40.90;22.73;;;;;;;12.00;45.75;102433.97;5057112;28;20440;-77
2022/01/18 11:44:27;;;;;;;41.60;21.23;;;;;;;12.06;44.14;102426.59;5054569;28;20421;-76
2022/01/18 11:47:26;;;;;;;53.92;21.35;;;;;;;12.12;43.80;102432.81;5063056;28;20040;-75
2022/01/18 11:50:15;;;;;;;33.40;17.15;;;;;;;12.30;42.77;102437.59;5076308;28;20521;-74
2022/01/18 11:56:45;;;;;;;34.28;18.15;;;;;;;12.45;42.52;102434.72;5052435;28;20044;-74
2022/01/18 11:59:39;;;;;;;38.35;18.33;;;;;;;12.35;42.93;102429.38;5070703;28;20489;-74
2022/01/18 12:02:34;;;;;;;28.20;14.77;;;;;;;12.25;43.12;102434.91;5070770;28;20037;-75
2022/01/18 12:05:21;;;;;;;33.22;15.68;;;;;;;12.50;43.32;102429.25;5073370;28;20405;-74
2022/01/18 12:08:05;;;;;;;33.40;16.50;;;;;;;12.71;43.04;102436.16;5068931;28;20049;-73
2022/01/18 12:10:50;;;;;;;29.05;14.93;;;;;;;12.78;43.58;102433.91;5065626;28;20040;-74
2022/01/18 12:13:39;;;;;;;24.00;13.52;;;;;;;12.74;43.70;102432.84;5067816;28;20505;-75
2022/01/18 12:16:28;;;;;;;39.03;18.88;;;;;;;12.54;44.23;102433.03;5069700;28;20036;-75
2022/01/18 12:19:14;;;;;;;33.42;18.55;;;;;;;12.52;45.17;102424.31;5073204;28;20408;-76
2022/01/18 12:21:59;;;;;;;35.47;18.15;;;;;;;12.56;45.37;102425.38;5070415;28;20032;-76
2022/01/18 12:24:47;;;;;;;26.30;15.45;;;;;;;12.78;45.49;102427.63;5070462;28;20044;-77
2022/01/18 12:27:32;;;;;;;35.97;19.48;;;;;;;12.78;45.49;102425.72;5074347;28;20700;-77
2022/01/18 12:30:39;;;;;;;35.72;18.77;;;;;;;12.27;46.69;102416.34;5069734;28;20036;-76
2022/01/18 12:33:24;;;;;;;38.25;19.65;;;;;;;12.65;46.44;102418.19;5073220;28;20037;-74
2022/01/18 12:36:27;;;;;;;29.67;16.58;;;;;;;12.67;46.37;102420.63;5073560;28;20045;-76
2022/01/18 12:39:12;;;;;;;36.75;20.13;;;;;;;12.94;46.47;102422.84;5073695;28;20040;-75
2022/01/18 12:41:58;;;;;;;36.03;18.17;;;;;;;13.08;45.39;102418.31;5064379;28;20033;-75
2022/01/18 12:44:44;;;;;;;36.58;19.25;;;;;;;13.12;45.89;102414.72;5075543;28;20032;-74
2022/01/18 12:47:29;;;;;;;38.75;19.50;;;;;;;13.23;45.84;102415.44;5072572;28;20044;-74
2022/01/18 12:50:24;;;;;;;30.63;18.85;;;;;;;13.00;45.49;102413.50;5070442;28;20044;-76
2022/01/18 12:53:18;;;;;;;30.77;17.65;;;;;;;12.93;45.90;102415.75;5075144;28;20044;-76
2022/01/18 12:56:06;;;;;;;30.10;17.67;;;;;;;12.97;45.91;102408.59;5068634;28;20033;-76
2022/01/18 12:58:51;;;;;;;32.47;17.38;;;;;;;13.29;45.97;102408.81;5065987;28;20040;-76
2022/01/18 13:01:37;;;;;;;29.20;16.00;;;;;;;13.33;45.03;102415.31;5072991;28;20032;-77
2022/01/18 13:04:23;;;;;;;17.85;10.52;;;;;;;13.59;42.13;102407.59;5066056;28;20045;-76
2022/01/18 13:07:08;;;;;;;17.30;9.75;;;;;;;13.21;42.70;102401.22;5066641;28;20505;-77
2022/01/18 13:10:13;;;;;;;19.02;9.93;;;;;;;13.81;42.15;102401.56;5078816;28;20051;-79
2022/01/18 13:12:59;;;;;;;21.63;11.55;;;;;;;17.88;35.95;102402.69;5082559;28;20416;-78
2022/01/18 13:25:13;;;;;;;20.00;10.68;;;;;;;26.20;21.41;102426.34;5079277;28;20535;-78
2022/01/18 13:28:03;;;;;;;17.45;10.48;;;;;;;24.58;23.24;102428.19;5076631;28;20045;-78
2022/01/18 13:30:47;;;;;;;17.50;10.88;;;;;;;25.97;21.53;102431.22;5067976;28;20409;-78
2022/01/18 13:33:58;;;;;;;20.05;11.10;;;;;;;26.45;21.49;102425.84;5077887;28;20074;-78
2022/01/18 13:36:59;;;;;;;15.80;10.18;;;;;;;27.23;21.16;102435.75;5074956;28;20037;-78
2022/01/18 13:39:50;;;;;;;14.93;9.05;;;;;;;26.30;21.92;102431.28;5074466;28;20044;-78
2022/01/18 13:43:03;;;;;;;26.92;9.73;;;;;;;26.00;22.07;102433.28;5076555;28;20405;-78
2022/01/18 13:45:48;;;;;;;16.77;10.10;;;;;;;25.00;23.15;102417.03;5064194;28;20040;-77
2022/01/18 13:48:34;;;;;;;22.42;11.20;;;;;;;25.57;22.29;102425.50;5077843;28;20044;-77
2022/01/18 13:51:19;;;;;;;19.80;10.82;;;;;;;26.51;21.80;102429.91;5075186;28;20044;-78
2022/01/18 13:54:08;;;;;;;17.48;10.90;;;;;;;25.90;22.11;102425.59;5079632;28;20036;-78
2022/01/18 13:56:53;;;;;;;19.67;12.02;;;;;;;26.59;21.94;102429.59;5077716;28;20049;-78
2022/01/18 13:59:38;;;;;;;17.15;10.40;;;;;;;26.76;21.26;102420.59;5074840;28;20037;-78
2022/01/18 14:02:24;;;;;;;20.48;11.98;;;;;;;24.41;23.29;102414.78;5079303;28;20413;-78
2022/01/18 14:05:10;;;;;;;20.98;12.05;;;;;;;25.73;22.25;102424.16;5077129;28;20044;-78